Time;durP1;ratioP1;P1;durP2;ratioP2;P2;SDS_P1;SDS_P2;PMS_P1;PMS_P2;Temp;Humidity;BMP_temperature;BMP_pressure;BME280_temperature;BME280_humidity;BME280_pressure;Samples;Min_cycle;Max_cycle;Signal;HPM_P1;HPM_P2
2021/08/24 00:00:23;;;;;;;1.07;0.97;;;19.90;74.10;;;;;;10510876;28;20216;-61
2021/08/24 00:05:46;;;;;;;0.83;0.60;;;19.90;74.10;;;;;;10497658;28;20192;-62
2021/08/24 00:11:10;;;;;;;0.70;0.67;;;19.90;74.10;;;;;;10484224;28;20691;-62
2021/08/24 00:16:34;;;;;;;0.60;0.60;;;19.90;74.10;;;;;;10474910;28;20204;-62
2021/08/24 00:21:56;;;;;;;0.83;0.83;;;19.90;74.10;;;;;;10497464;28;20568;-60
2021/08/24 00:27:18;;;;;;;1.07;0.87;;;19.80;74.10;;;;;;10499121;28;20200;-61
2021/08/24 00:32:41;;;;;;;0.80;0.80;;;19.90;74.20;;;;;;10497524;28;20213;-59
2021/08/24 00:38:04;;;;;;;1.53;0.80;;;19.80;74.10;;;;;;10497515;28;20221;-58
2021/08/24 00:43:28;;;;;;;0.80;0.80;;;19.80;74.10;;;;;;10497019;28;20215;-60
2021/08/24 00:48:52;;;;;;;1.20;0.77;;;19.80;74.10;;;;;;10496235;28;20601;-63
2021/08/24 00:54:18;;;;;;;1.20;0.90;;;19.80;74.10;;;;;;10511208;28;20204;-63
2021/08/24 00:59:41;;;;;;;0.57;0.57;;;19.90;74.20;;;;;;10520148;28;20215;-62
2021/08/24 01:05:05;;;;;;;1.13;0.80;;;19.80;74.10;;;;;;10455177;28;20201;-60
2021/08/24 01:10:37;;;;;;;0.80;0.80;;;19.80;74.10;;;;;;10476779;28;20560;-63
2021/08/24 01:16:08;;;;;;;0.93;0.83;;;19.80;74.10;;;;;;10496212;28;20698;-62
2021/08/24 01:22:02;;;;;;;0.80;0.70;;;19.80;74.10;;;;;;10495157;28;20227;-63
2021/08/24 01:27:33;;;;;;;0.80;0.77;;;19.80;74.00;;;;;;10495877;28;20203;-63
2021/08/24 01:33:13;;;;;;;1.20;0.90;;;19.80;74.20;;;;;;10495098;28;20232;-59
2021/08/24 01:38:44;;;;;;;1.00;0.80;;;19.80;74.10;;;;;;10494517;28;20212;-61
2021/08/24 01:44:16;;;;;;;0.80;0.73;;;19.80;74.20;;;;;;10495057;28;20200;-61
2021/08/24 01:49:44;;;;;;;0.83;0.80;;;19.80;74.20;;;;;;10493813;28;20209;-62
2021/08/24 01:55:12;;;;;;;1.40;1.00;;;19.80;74.20;;;;;;10512753;28;20192;-61
2021/08/24 02:00:39;;;;;;;0.60;0.60;;;19.80;74.20;;;;;;10493979;28;20216;-58
2021/08/24 02:06:06;;;;;;;0.77;0.77;;;19.80;74.20;;;;;;10494730;28;20197;-63
2021/08/24 02:11:33;;;;;;;0.90;0.73;;;19.80;74.40;;;;;;10493988;28;20239;-62
2021/08/24 02:16:58;;;;;;;0.63;0.57;;;19.80;74.20;;;;;;10493020;28;20192;-61
2021/08/24 02:22:27;;;;;;;0.60;0.60;;;19.80;74.10;;;;;;10492741;28;20602;-62
2021/08/24 02:27:58;;;;;;;0.70;0.70;;;19.80;74.20;;;;;;10493071;28;20220;-62
2021/08/24 02:33:24;;;;;;;0.67;0.67;;;19.80;74.20;;;;;;10493615;28;20209;-63
2021/08/24 02:38:54;;;;;;;1.20;0.90;;;19.80;74.20;;;;;;10492255;28;20204;-62
2021/08/24 02:44:22;;;;;;;0.80;0.70;;;19.80;74.30;;;;;;10493321;28;20210;-62
2021/08/24 02:49:44;;;;;;;1.00;0.80;;;19.80;74.20;;;;;;10493377;28;20235;-63
2021/08/24 02:55:08;;;;;;;0.80;0.70;;;19.80;74.30;;;;;;10483299;28;20199;-62
2021/08/24 03:00:32;;;;;;;0.90;0.80;;;19.80;74.40;;;;;;10522009;28;20223;-61
2021/08/24 03:05:54;;;;;;;0.77;0.73;;;19.80;74.40;;;;;;10533869;28;20227;-62
2021/08/24 03:11:23;;;;;;;1.20;0.83;;;19.80;74.40;;;;;;10518603;28;20227;-62
2021/08/24 03:16:52;;;;;;;0.70;0.67;;;19.80;74.40;;;;;;10493530;28;20204;-61
2021/08/24 03:22:15;;;;;;;0.90;0.77;;;19.80;74.40;;;;;;10499977;28;20258;-58
2021/08/24 03:27:41;;;;;;;0.70;0.70;;;19.80;74.50;;;;;;10499745;28;20675;-63
2021/08/24 03:33:04;;;;;;;0.70;0.70;;;19.80;74.40;;;;;;10498920;28;20204;-61
2021/08/24 03:38:27;;;;;;;0.63;0.63;;;19.80;74.50;;;;;;10500304;28;20204;-62
2021/08/24 03:43:49;;;;;;;0.70;0.70;;;19.80;74.60;;;;;;10500452;28;20200;-62
2021/08/24 03:49:12;;;;;;;1.67;0.90;;;19.80;74.20;;;;;;10498107;28;20208;-63
2021/08/24 03:54:35;;;;;;;0.90;0.80;;;19.80;73.90;;;;;;10522421;28;20203;-60
2021/08/24 03:59:57;;;;;;;1.23;0.80;;;19.80;73.80;;;;;;10515684;28;20228;-63
2021/08/24 04:05:21;;;;;;;1.00;0.77;;;19.80;73.60;;;;;;10499089;28;20196;-63
2021/08/24 04:10:43;;;;;;;0.90;0.80;;;19.80;73.60;;;;;;10520502;22;20736;-60
2021/08/24 04:16:06;;;;;;;1.03;0.80;;;19.80;73.50;;;;;;10498453;28;20679;-61
2021/08/24 04:21:31;;;;;;;0.70;0.70;;;19.80;73.50;;;;;;10457264;28;20726;-61
2021/08/24 04:26:53;;;;;;;0.93;0.83;;;19.80;73.60;;;;;;10458235;28;20197;-60
2021/08/24 04:32:22;;;;;;;0.90;0.90;;;19.80;73.60;;;;;;10488858;28;20216;-60
2021/08/24 04:37:45;;;;;;;0.83;0.80;;;19.80;74.00;;;;;;10498583;28;20668;-61
2021/08/24 04:43:07;;;;;;;0.90;0.80;;;19.80;74.00;;;;;;10497833;28;20223;-58
2021/08/24 04:48:29;;;;;;;2.00;1.00;;;19.80;73.80;;;;;;10497579;28;20207;-61
2021/08/24 04:53:53;;;;;;;2.30;0.90;;;19.80;73.60;;;;;;10514849;28;20215;-62
2021/08/24 04:59:15;;;;;;;0.80;0.73;;;19.90;73.50;;;;;;10495714;28;20217;-61
2021/08/24 05:04:37;;;;;;;0.93;0.90;;;19.80;73.50;;;;;;10495612;28;20204;-63
2021/08/24 05:10:01;;;;;;;1.00;0.80;;;19.90;73.50;;;;;;10494953;28;20220;-61
2021/08/24 05:15:23;;;;;;;1.00;0.90;;;19.80;73.50;;;;;;10496251;28;20200;-61
2021/08/24 05:20:45;;;;;;;0.83;0.80;;;19.80;73.50;;;;;;10494146;28;20223;-60
2021/08/24 05:26:10;;;;;;;1.03;0.90;;;19.80;73.40;;;;;;10492603;28;20189;-61
2021/08/24 05:31:32;;;;;;;0.67;0.67;;;19.80;73.40;;;;;;10493652;28;20227;-61
2021/08/24 05:36:54;;;;;;;1.00;0.90;;;19.80;73.30;;;;;;10493981;28;20207;-61
2021/08/24 05:42:18;;;;;;;1.03;0.90;;;19.80;73.20;;;;;;10493552;28;20231;-59
2021/08/24 05:47:40;;;;;;;0.70;0.70;;;19.80;73.20;;;;;;10493347;28;20188;-62
2021/08/24 05:53:02;;;;;;;0.93;0.87;;;19.80;73.20;;;;;;10505479;28;20598;-62
2021/08/24 05:58:25;;;;;;;0.87;0.87;;;19.80;73.40;;;;;;10522273;28;20595;-61
2021/08/24 06:03:48;;;;;;;1.87;0.90;;;19.80;73.50;;;;;;10492790;28;20224;-60
2021/08/24 06:09:12;;;;;;;0.83;0.73;;;19.80;73.60;;;;;;10486327;28;20193;-62
2021/08/24 06:14:35;;;;;;;0.90;0.77;;;19.80;73.70;;;;;;10488998;28;20203;-60
2021/08/24 06:19:57;;;;;;;0.90;0.80;;;19.70;73.70;;;;;;10486008;28;20703;-58
2021/08/24 06:25:22;;;;;;;0.97;0.70;;;19.80;73.80;;;;;;10492848;28;20196;-59
2021/08/24 06:30:45;;;;;;;0.90;0.80;;;19.80;73.80;;;;;;10490349;28;20231;-59
2021/08/24 06:36:08;;;;;;;0.60;0.60;;;19.80;73.70;;;;;;10491650;28;20575;-58
2021/08/24 06:41:30;;;;;;;1.30;1.10;;;19.80;73.70;;;;;;10491901;28;20263;-60
2021/08/24 06:46:53;;;;;;;1.00;0.90;;;19.80;73.80;;;;;;10493761;28;20203;-58
2021/08/24 06:52:15;;;;;;;0.80;0.73;;;19.80;74.00;;;;;;10495706;28;20211;-61
2021/08/24 06:57:38;;;;;;;1.10;1.00;;;19.80;74.10;;;;;;10482882;28;20189;-61
2021/08/24 07:03:01;;;;;;;1.80;0.73;;;19.80;74.00;;;;;;10485112;28;20727;-61
2021/08/24 07:08:23;;;;;;;1.03;0.93;;;19.80;73.90;;;;;;10488237;28;20200;-60
2021/08/24 07:13:45;;;;;;;0.70;0.70;;;19.80;74.00;;;;;;10466584;28;20281;-60
2021/08/24 07:19:09;;;;;;;1.23;1.10;;;19.80;74.00;;;;;;10482783;28;20235;-55
2021/08/24 07:24:31;;;;;;;1.23;1.00;;;19.80;74.20;;;;;;10496161;28;20200;-56
2021/08/24 07:29:53;;;;;;;2.03;0.90;;;19.80;74.20;;;;;;10490186;28;20215;-60
2021/08/24 07:35:17;;;;;;;2.50;1.00;;;19.80;73.90;;;;;;10487654;28;20267;-57
2021/08/24 07:40:39;;;;;;;0.90;0.90;;;19.80;74.00;;;;;;10492350;28;20227;-59
2021/08/24 07:46:01;;;;;;;2.03;0.93;;;19.80;74.10;;;;;;10496563;28;20618;-59
2021/08/24 07:51:25;;;;;;;1.00;0.90;;;19.80;74.20;;;;;;10487734;28;20705;-59
2021/08/24 07:56:47;;;;;;;1.43;0.80;;;19.80;74.40;;;;;;10489875;28;20200;-60
2021/08/24 08:02:14;;;;;;;0.93;0.87;;;19.80;74.30;;;;;;10451295;28;20228;-57
2021/08/24 08:07:38;;;;;;;1.00;0.60;;;19.80;74.40;;;;;;10458375;28;20584;-59
2021/08/24 08:13:00;;;;;;;1.63;0.93;;;19.80;74.50;;;;;;10485975;28;20216;-57
2021/08/24 08:18:22;;;;;;;1.43;0.83;;;19.80;74.50;;;;;;10504343;28;20199;-59
2021/08/24 08:23:46;;;;;;;1.53;1.00;;;19.80;74.50;;;;;;10504651;28;20223;-59
2021/08/24 08:29:11;;;;;;;1.30;0.90;;;19.80;74.70;;;;;;10490290;28;20204;-59
2021/08/24 08:34:33;;;;;;;1.67;1.07;;;19.80;74.60;;;;;;10499885;28;20223;-57
2021/08/24 08:39:57;;;;;;;0.77;0.77;;;19.80;74.60;;;;;;10502433;28;20923;-60
2021/08/24 08:45:26;;;;;;;1.40;0.97;;;19.80;74.60;;;;;;10496949;28;20576;-59
2021/08/24 08:50:53;;;;;;;2.03;1.03;;;19.80;74.70;;;;;;10495113;28;20208;-58
2021/08/24 08:56:27;;;;;;;0.97;0.80;;;19.80;75.30;;;;;;10466090;28;20562;-56
2021/08/24 09:01:57;;;;;;;4.83;0.90;;;19.80;74.90;;;;;;10494459;28;20603;-58
2021/08/24 09:07:25;;;;;;;0.93;0.70;;;19.80;74.80;;;;;;10496728;28;20476;-56
2021/08/24 09:12:55;;;;;;;1.37;1.00;;;19.80;74.80;;;;;;10521542;28;20216;-59
2021/08/24 09:18:24;;;;;;;0.93;0.83;;;19.80;74.60;;;;;;10523966;28;20200;-58
2021/08/24 09:23:46;;;;;;;1.60;1.07;;;19.80;74.50;;;;;;10537860;28;20212;-58
2021/08/24 09:29:10;;;;;;;0.97;0.80;;;19.80;74.30;;;;;;10538116;28;20274;-57
2021/08/24 09:34:37;;;;;;;0.77;0.60;;;19.80;73.80;;;;;;10536387;28;20191;-58
2021/08/24 09:40:01;;;;;;;1.00;0.90;;;19.80;73.90;;;;;;10508391;28;20220;-56
2021/08/24 09:45:30;;;;;;;0.73;0.70;;;19.80;73.10;;;;;;10495903;28;20201;-56
2021/08/24 09:50:53;;;;;;;1.60;0.90;;;19.80;73.30;;;;;;10494651;28;20618;-56
2021/08/24 09:56:24;;;;;;;2.07;1.00;;;19.80;73.30;;;;;;10527685;28;20599;-58
2021/08/24 10:01:50;;;;;;;1.20;1.00;;;19.80;73.10;;;;;;10534731;28;20302;-55
2021/08/24 10:07:12;;;;;;;1.00;0.80;;;19.80;72.80;;;;;;10500110;28;20200;-55
2021/08/24 10:12:35;;;;;;;1.43;1.10;;;19.80;72.50;;;;;;10499574;22;20237;-65
2021/08/24 10:18:04;;;;;;;1.50;1.00;;;19.80;72.10;;;;;;10476218;28;20200;-64
2021/08/24 10:23:29;;;;;;;1.47;0.93;;;19.80;71.60;;;;;;10491716;28;20319;-64
2021/08/24 10:28:54;;;;;;;1.03;0.93;;;19.80;71.20;;;;;;10525520;28;20582;-64
2021/08/24 10:34:31;;;;;;;1.37;1.00;;;19.80;71.10;;;;;;10534414;28;20220;-64
2021/08/24 10:39:55;;;;;;;2.20;1.27;;;19.80;70.60;;;;;;10517553;28;20199;-65
2021/08/24 10:45:27;;;;;;;1.97;1.20;;;19.70;70.20;;;;;;10485169;28;20215;-64
2021/08/24 10:50:56;;;;;;;2.17;1.50;;;19.80;70.10;;;;;;10485342;28;20215;-64
2021/08/24 10:56:25;;;;;;;1.37;1.07;;;19.80;70.00;;;;;;10523417;28;20196;-65
2021/08/24 11:01:56;;;;;;;1.90;1.40;;;19.70;69.70;;;;;;10525702;28;20226;-65
2021/08/24 11:07:34;;;;;;;2.37;1.50;;;19.80;69.00;;;;;;10526940;28;20241;-64
2021/08/24 11:13:08;;;;;;;3.27;1.67;;;19.80;68.90;;;;;;10499097;28;20682;-64
2021/08/24 11:18:41;;;;;;;2.23;1.50;;;19.70;68.70;;;;;;10483413;28;20575;-65
2021/08/24 11:24:16;;;;;;;3.00;1.60;;;19.70;68.50;;;;;;10486099;28;20216;-65
2021/08/24 11:29:43;;;;;;;2.10;1.60;;;19.70;68.30;;;;;;10518072;28;20208;-64
2021/08/24 11:35:10;;;;;;;2.30;1.70;;;19.70;68.00;;;;;;10528260;28;20215;-64
2021/08/24 11:40:40;;;;;;;2.40;1.57;;;19.70;67.90;;;;;;10531402;28;20699;-64
2021/08/24 11:46:08;;;;;;;2.73;1.93;;;19.70;66.30;;;;;;10518225;28;20214;-65
2021/08/24 11:51:33;;;;;;;2.27;1.73;;;19.70;67.00;;;;;;10493548;28;20603;-65
2021/08/24 11:57:07;;;;;;;2.40;1.93;;;19.80;66.80;;;;;;10458526;28;20200;-65
2021/08/24 12:02:35;;;;;;;2.23;1.50;;;19.80;66.20;;;;;;10533211;28;20605;-64
2021/08/24 12:08:00;;;;;;;2.33;1.63;;;19.80;66.70;;;;;;10539804;28;20206;-64
2021/08/24 12:13:29;;;;;;;2.23;1.60;;;19.80;66.30;;;;;;10506255;28;20237;-65
2021/08/24 12:18:54;;;;;;;2.70;1.80;;;19.80;67.10;;;;;;10498215;28;20200;-65
2021/08/24 12:24:36;;;;;;;2.37;1.53;;;19.80;67.10;;;;;;10496749;28;20223;-63
2021/08/24 12:30:14;;;;;;;1.90;1.50;;;19.80;66.40;;;;;;10456752;28;20193;-65
2021/08/24 12:35:40;;;;;;;2.00;1.60;;;19.80;67.30;;;;;;10477123;28;20201;-64
2021/08/24 12:41:03;;;;;;;2.37;1.80;;;19.80;65.90;;;;;;10496634;28;20614;-58
2021/08/24 12:46:35;;;;;;;2.50;1.90;;;19.80;66.10;;;;;;10497318;28;20200;-57
2021/08/24 12:52:03;;;;;;;3.10;1.80;;;19.80;66.70;;;;;;10496168;28;20209;-57
2021/08/24 12:57:32;;;;;;;3.37;2.20;;;19.80;66.60;;;;;;10537380;28;20248;-52
2021/08/24 13:03:17;;;;;;;2.40;1.70;;;19.80;66.30;;;;;;10537363;28;20245;-55
2021/08/24 13:08:39;;;;;;;2.50;1.77;;;19.80;65.60;;;;;;10494589;28;20189;-56
2021/08/24 13:14:03;;;;;;;2.53;1.80;;;19.80;65.90;;;;;;10494912;28;20225;-53
2021/08/24 13:19:29;;;;;;;2.00;1.50;;;19.80;65.90;;;;;;10495125;28;20199;-55
2021/08/24 13:24:52;;;;;;;2.83;1.90;;;19.80;66.20;;;;;;10495903;28;20212;-54
2021/08/24 13:30:18;;;;;;;2.47;1.60;;;19.70;66.10;;;;;;10494436;28;20216;-50
2021/08/24 13:35:51;;;;;;;3.03;1.60;;;19.70;65.30;;;;;;10493743;28;20189;-52
2021/08/24 13:41:19;;;;;;;2.33;1.70;;;19.70;65.90;;;;;;10493524;28;20228;-64
2021/08/24 13:46:41;;;;;;;2.17;1.60;;;19.70;65.80;;;;;;10492047;28;20258;-64
2021/08/24 13:52:05;;;;;;;2.13;1.73;;;19.80;66.10;;;;;;10493024;28;20707;-62
2021/08/24 13:57:31;;;;;;;2.40;1.53;;;19.70;66.20;;;;;;10512890;28;20208;-64
2021/08/24 14:02:54;;;;;;;2.20;1.77;;;19.80;66.40;;;;;;10534915;28;20227;-64
2021/08/24 14:08:19;;;;;;;2.80;1.80;;;19.80;66.60;;;;;;10494417;28;20196;-63
2021/08/24 14:13:43;;;;;;;2.50;1.63;;;19.80;66.80;;;;;;10490470;28;20679;-64
2021/08/24 14:19:10;;;;;;;2.10;1.60;;;19.70;66.90;;;;;;10492447;28;20225;-63
2021/08/24 14:24:35;;;;;;;3.03;1.90;;;19.80;67.10;;;;;;10492549;28;20216;-64
2021/08/24 14:29:57;;;;;;;2.70;1.93;;;19.70;67.20;;;;;;10491983;28;20208;-63
2021/08/24 14:35:46;;;;;;;2.50;1.90;;;19.70;67.40;;;;;;10492081;28;20220;-64
2021/08/24 14:41:16;;;;;;;2.40;1.73;;;19.80;67.50;;;;;;10491305;28;20216;-64
2021/08/24 14:46:46;;;;;;;2.40;1.60;;;19.80;67.70;;;;;;10487478;28;20196;-64
2021/08/24 14:52:25;;;;;;;1.97;1.43;;;19.80;67.90;;;;;;10509300;28;20215;-63
2021/08/24 14:57:58;;;;;;;2.20;1.50;;;19.80;68.00;;;;;;10526680;28;20192;-64
2021/08/24 15:03:28;;;;;;;2.07;1.43;;;19.80;68.10;;;;;;10492582;28;20761;-64
2021/08/24 15:08:50;;;;;;;2.50;1.70;;;19.80;68.20;;;;;;10492084;28;20667;-64
2021/08/24 15:14:20;;;;;;;2.50;1.83;;;19.80;68.30;;;;;;10495257;28;20599;-64
2021/08/24 15:19:53;;;;;;;1.87;1.50;;;19.80;68.60;;;;;;10500702;28;20204;-56
2021/08/24 15:25:25;;;;;;;1.70;1.47;;;19.80;68.50;;;;;;10500069;28;20217;-49
2021/08/24 15:31:02;;;;;;;2.27;1.40;;;19.80;68.70;;;;;;10500704;28;20269;-55
2021/08/24 15:36:26;;;;;;;4.73;1.90;;;19.70;68.50;;;;;;10500065;28;20197;-60
2021/08/24 15:41:49;;;;;;;2.77;1.83;;;19.70;68.80;;;;;;10493504;28;20217;-62
2021/08/24 15:47:11;;;;;;;2.17;1.60;;;19.80;68.90;;;;;;10494030;28;20222;-64
2021/08/24 15:52:36;;;;;;;2.23;1.70;;;19.80;69.00;;;;;;10499752;28;20211;-60
2021/08/24 15:57:59;;;;;;;3.73;1.67;;;19.80;69.20;;;;;;10506138;28;20209;-63
2021/08/24 16:03:21;;;;;;;2.37;1.70;;;19.80;69.40;;;;;;10534735;28;20227;-62
2021/08/24 16:08:45;;;;;;;2.10;1.67;;;19.80;69.60;;;;;;10492736;28;20282;-62
2021/08/24 16:14:07;;;;;;;2.23;1.60;;;19.80;69.60;;;;;;10454680;28;20236;-62
2021/08/24 16:19:30;;;;;;;1.77;1.57;;;19.80;69.80;;;;;;10482674;28;20808;-63
2021/08/24 16:24:52;;;;;;;1.87;1.50;;;19.80;69.90;;;;;;10491840;28;20598;-59
2021/08/24 16:30:17;;;;;;;1.63;1.33;;;19.80;70.10;;;;;;10492512;28;20220;-63
2021/08/24 16:35:43;;;;;;;1.97;1.43;;;19.80;70.10;;;;;;10491537;28;20220;-63
2021/08/24 16:41:07;;;;;;;2.43;1.80;;;19.80;70.20;;;;;;10491244;28;20219;-62
2021/08/24 16:46:34;;;;;;;2.53;1.80;;;19.80;70.30;;;;;;10491080;28;20208;-63
2021/08/24 16:51:58;;;;;;;2.30;1.60;;;19.80;70.40;;;;;;10492195;28;20342;-64
2021/08/24 16:57:20;;;;;;;1.97;1.50;;;19.80;70.50;;;;;;10528966;28;20195;-64
2021/08/24 17:02:42;;;;;;;1.70;1.43;;;19.80;70.50;;;;;;10491342;28;20228;-62
2021/08/24 17:08:06;;;;;;;3.23;1.60;;;19.80;70.50;;;;;;10491319;28;20218;-62
2021/08/24 17:13:28;;;;;;;2.47;1.43;;;19.80;70.70;;;;;;10457989;28;20370;-63
2021/08/24 17:18:50;;;;;;;1.80;1.43;;;19.80;70.80;;;;;;10474314;28;20196;-63
2021/08/24 17:24:15;;;;;;;2.30;1.60;;;19.80;70.90;;;;;;10490415;28;20691;-61
2021/08/24 17:29:37;;;;;;;2.23;1.50;;;19.80;71.00;;;;;;10489955;28;20199;-63
2021/08/24 17:35:00;;;;;;;3.07;1.50;;;19.80;71.10;;;;;;10489664;28;20212;-63
2021/08/24 17:40:24;;;;;;;3.33;1.77;;;19.80;71.20;;;;;;10488933;28;20921;-61
2021/08/24 17:45:49;;;;;;;3.03;2.03;;;19.80;71.20;;;;;;10488526;28;20208;-64
2021/08/24 17:51:16;;;;;;;3.27;1.77;;;19.80;71.30;;;;;;10488333;28;20236;-62
2021/08/24 17:56:39;;;;;;;2.13;1.53;;;19.80;71.40;;;;;;10528860;28;20199;-63
2021/08/24 18:02:01;;;;;;;1.67;1.40;;;19.80;71.40;;;;;;10485722;28;20615;-58
2021/08/24 18:07:23;;;;;;;2.20;1.60;;;19.80;71.40;;;;;;10487699;28;20662;-64
2021/08/24 18:12:47;;;;;;;2.47;1.80;;;19.80;71.50;;;;;;10460586;28;20268;-63
2021/08/24 18:18:09;;;;;;;2.07;1.67;;;19.80;71.50;;;;;;10465703;28;20687;-63
2021/08/24 18:23:31;;;;;;;2.33;1.50;;;19.80;71.60;;;;;;10484679;28;20216;-63
2021/08/24 18:28:55;;;;;;;2.43;1.53;;;19.80;71.70;;;;;;10484786;28;20216;-64
2021/08/24 18:34:17;;;;;;;1.83;1.53;;;19.80;71.70;;;;;;10485784;28;20231;-61
2021/08/24 18:39:40;;;;;;;4.00;2.20;;;19.80;71.80;;;;;;10486142;28;20192;-63
2021/08/24 18:45:06;;;;;;;2.37;1.50;;;19.80;71.80;;;;;;10485731;28;20212;-62
2021/08/24 18:50:30;;;;;;;2.27;1.67;;;19.80;71.90;;;;;;10483111;28;20197;-63
2021/08/24 18:55:54;;;;;;;3.27;1.87;;;19.80;71.90;;;;;;10487258;28;20197;-63
2021/08/24 19:01:20;;;;;;;2.40;1.63;;;19.80;71.10;;;;;;10486193;28;20582;-63
2021/08/24 19:06:43;;;;;;;3.13;1.73;;;19.90;71.30;;;;;;10485523;28;20195;-63
2021/08/24 19:12:06;;;;;;;2.63;1.70;;;19.90;71.10;;;;;;10483675;28;20550;-63
2021/08/24 19:17:30;;;;;;;3.33;2.00;;;19.90;71.20;;;;;;10484489;28;20200;-63
2021/08/24 19:22:53;;;;;;;3.23;2.10;;;19.90;71.20;;;;;;10483832;28;20209;-64
2021/08/24 19:28:15;;;;;;;2.50;2.00;;;19.90;71.20;;;;;;10485583;28;20192;-63
2021/08/24 19:33:39;;;;;;;1.97;1.50;;;19.90;71.60;;;;;;10485862;28;20223;-65
2021/08/24 19:39:01;;;;;;;2.17;1.37;;;19.90;71.80;;;;;;10485785;28;20196;-63
2021/08/24 19:44:23;;;;;;;2.33;1.90;;;19.90;71.90;;;;;;10485884;28;20228;-63
2021/08/24 19:49:46;;;;;;;2.93;2.00;;;19.90;72.00;;;;;;10485812;28;20201;-62
2021/08/24 19:55:12;;;;;;;2.27;1.50;;;19.90;72.20;;;;;;10502726;28;20219;-63
2021/08/24 20:00:34;;;;;;;2.63;1.60;;;19.90;72.30;;;;;;10554521;22;20229;-57
2021/08/24 20:05:57;;;;;;;2.07;1.60;;;19.90;72.30;;;;;;10486074;28;20212;-57
2021/08/24 20:11:27;;;;;;;2.73;1.73;;;19.90;72.30;;;;;;10479461;28;20227;-58
2021/08/24 20:16:49;;;;;;;1.93;1.63;;;19.90;72.30;;;;;;10455558;28;20196;-59
2021/08/24 20:22:12;;;;;;;2.53;1.57;;;19.90;72.40;;;;;;10454287;28;20224;-57
2021/08/24 20:27:35;;;;;;;1.67;1.40;;;19.90;72.40;;;;;;10455385;28;20196;-59
2021/08/24 20:32:57;;;;;;;2.27;1.63;;;19.90;72.50;;;;;;10455477;28;20209;-59
2021/08/24 20:38:21;;;;;;;2.00;1.73;;;19.90;72.50;;;;;;10455413;28;20197;-56
2021/08/24 20:43:43;;;;;;;2.20;1.70;;;19.90;72.60;;;;;;10456018;28;20588;-56
2021/08/24 20:49:05;;;;;;;2.17;1.50;;;19.90;72.70;;;;;;10455963;28;20201;-58
2021/08/24 20:54:29;;;;;;;2.93;1.77;;;19.90;72.70;;;;;;10477992;28;20214;-58
2021/08/24 20:59:51;;;;;;;2.40;1.70;;;19.80;72.70;;;;;;10471834;28;20225;-56
2021/08/24 21:05:23;;;;;;;2.27;1.87;;;19.90;72.80;;;;;;10456234;28;20216;-57
2021/08/24 21:10:47;;;;;;;2.37;1.80;;;19.80;72.90;;;;;;10454668;28;20220;-58
2021/08/24 21:16:09;;;;;;;1.93;1.47;;;19.80;72.90;;;;;;10456391;28;20602;-59
2021/08/24 21:21:32;;;;;;;1.90;1.50;;;19.80;72.80;;;;;;10455848;28;20217;-56
2021/08/24 21:26:56;;;;;;;2.57;1.70;;;19.90;72.90;;;;;;10455576;28;20196;-57
2021/08/24 21:32:18;;;;;;;2.70;1.60;;;19.80;72.90;;;;;;10455463;28;20216;-58
2021/08/24 21:37:40;;;;;;;1.73;1.37;;;19.80;72.90;;;;;;10454925;28;20193;-57
2021/08/24 21:43:03;;;;;;;1.97;1.60;;;19.80;72.90;;;;;;10454890;28;20224;-58
2021/08/24 21:48:26;;;;;;;1.63;1.50;;;19.80;72.90;;;;;;10454771;28;20200;-58
2021/08/24 21:53:48;;;;;;;2.20;1.67;;;19.90;73.00;;;;;;10471263;28;20219;-57
2021/08/24 21:59:11;;;;;;;2.03;1.70;;;19.80;73.00;;;;;;10475428;28;20193;-60
2021/08/24 22:04:34;;;;;;;2.20;1.60;;;19.80;73.10;;;;;;10453764;28;20217;-57
2021/08/24 22:09:56;;;;;;;2.40;1.70;;;19.80;73.10;;;;;;10456931;28;20212;-56
2021/08/24 22:15:26;;;;;;;2.33;1.33;;;19.80;73.10;;;;;;10494888;28;20208;-57
2021/08/24 22:20:52;;;;;;;2.10;1.60;;;19.80;73.10;;;;;;10453290;28;20240;-58
2021/08/24 22:26:14;;;;;;;1.97;1.60;;;19.80;73.20;;;;;;10453282;28;20584;-59
2021/08/24 22:31:37;;;;;;;1.97;1.63;;;19.80;73.20;;;;;;10450522;28;20224;-59
2021/08/24 22:37:04;;;;;;;2.53;1.70;;;19.80;73.20;;;;;;10452789;28;20185;-58
2021/08/24 22:42:26;;;;;;;2.17;1.80;;;19.80;73.20;;;;;;10451968;28;20220;-59
2021/08/24 22:47:48;;;;;;;2.43;1.60;;;19.80;73.20;;;;;;10451962;28;20200;-59
2021/08/24 22:53:12;;;;;;;3.07;1.87;;;19.80;73.30;;;;;;10464283;28;20304;-57
2021/08/24 22:58:34;;;;;;;1.97;1.60;;;19.80;73.30;;;;;;10478717;28;20561;-59
2021/08/24 23:03:56;;;;;;;1.77;1.60;;;19.80;73.30;;;;;;10450933;28;20228;-56
2021/08/24 23:09:20;;;;;;;2.33;1.50;;;19.80;73.30;;;;;;10452226;28;20200;-56
2021/08/24 23:14:42;;;;;;;2.47;1.80;;;19.80;73.30;;;;;;10411326;28;20202;-55
2021/08/24 23:20:05;;;;;;;2.43;1.67;;;19.80;73.30;;;;;;10445187;28;20221;-59
2021/08/24 23:25:28;;;;;;;1.83;1.50;;;19.80;73.40;;;;;;10451932;28;20596;-59
2021/08/24 23:30:51;;;;;;;1.90;1.60;;;19.80;73.40;;;;;;10451957;28;20718;-57
2021/08/24 23:36:13;;;;;;;2.40;1.60;;;19.80;73.40;;;;;;10456932;28;20197;-56
2021/08/24 23:41:36;;;;;;;2.63;1.80;;;19.80;73.40;;;;;;10459214;28;20228;-57
2021/08/24 23:46:59;;;;;;;1.80;1.27;;;19.80;73.40;;;;;;10459563;28;20223;-57
2021/08/24 23:52:22;;;;;;;2.13;1.40;;;19.80;73.50;;;;;;10463768;28;20212;-59
2021/08/24 23:57:45;;;;;;;1.50;1.40;;;19.80;73.50;;;;;;10476010;28;20197;-56
